sensor_id;sensor_type;location;lat;lon;timestamp;P1;durP1;ratioP1;P2;durP2;ratioP2
11761;SDS011;5938;47.098;15.474;2023-05-27T00:02:52;13.40;;;11.40;;
11761;SDS011;5938;47.098;15.474;2023-05-27T00:06:55;11.37;;;10.27;;
11761;SDS011;5938;47.098;15.474;2023-05-27T00:10:58;13.10;;;10.20;;
11761;SDS011;5938;47.098;15.474;2023-05-27T00:15:03;11.17;;;9.70;;
11761;SDS011;5938;47.098;15.474;2023-05-27T00:19:07;12.53;;;11.20;;
11761;SDS011;5938;47.098;15.474;2023-05-27T00:23:11;13.13;;;10.50;;
11761;SDS011;5938;47.098;15.474;2023-05-27T00:27:14;11.60;;;10.17;;
11761;SDS011;5938;47.098;15.474;2023-05-27T00:31:19;11.13;;;9.37;;
11761;SDS011;5938;47.098;15.474;2023-05-27T00:35:22;13.30;;;10.67;;
11761;SDS011;5938;47.098;15.474;2023-05-27T00:39:25;12.30;;;9.07;;
11761;SDS011;5938;47.098;15.474;2023-05-27T00:43:29;10.47;;;9.37;;
11761;SDS011;5938;47.098;15.474;2023-05-27T00:47:35;11.73;;;10.20;;
11761;SDS011;5938;47.098;15.474;2023-05-27T00:51:38;11.30;;;9.20;;
11761;SDS011;5938;47.098;15.474;2023-05-27T00:55:42;13.97;;;10.60;;
11761;SDS011;5938;47.098;15.474;2023-05-27T00:59:46;11.37;;;10.23;;
11761;SDS011;5938;47.098;15.474;2023-05-27T01:03:51;12.63;;;10.87;;
11761;SDS011;5938;47.098;15.474;2023-05-27T01:07:59;11.27;;;10.03;;
11761;SDS011;5938;47.098;15.474;2023-05-27T01:12:14;11.77;;;9.40;;
11761;SDS011;5938;47.098;15.474;2023-05-27T01:16:25;12.83;;;10.20;;
11761;SDS011;5938;47.098;15.474;2023-05-27T01:20:31;12.00;;;9.53;;
11761;SDS011;5938;47.098;15.474;2023-05-27T01:24:43;11.63;;;9.77;;
11761;SDS011;5938;47.098;15.474;2023-05-27T01:28:47;13.33;;;9.80;;
11761;SDS011;5938;47.098;15.474;2023-05-27T01:32:52;12.07;;;10.77;;
11761;SDS011;5938;47.098;15.474;2023-05-27T01:36:58;16.73;;;11.17;;
11761;SDS011;5938;47.098;15.474;2023-05-27T01:41:06;11.63;;;10.20;;
11761;SDS011;5938;47.098;15.474;2023-05-27T01:45:11;10.80;;;9.70;;
11761;SDS011;5938;47.098;15.474;2023-05-27T01:49:15;10.20;;;9.20;;
11761;SDS011;5938;47.098;15.474;2023-05-27T01:53:18;13.13;;;10.60;;
11761;SDS011;5938;47.098;15.474;2023-05-27T01:57:24;11.70;;;10.30;;
11761;SDS011;5938;47.098;15.474;2023-05-27T02:01:27;14.17;;;11.33;;
11761;SDS011;5938;47.098;15.474;2023-05-27T02:05:32;13.73;;;10.50;;
11761;SDS011;5938;47.098;15.474;2023-05-27T02:09:37;14.33;;;10.47;;
11761;SDS011;5938;47.098;15.474;2023-05-27T02:13:41;11.80;;;10.00;;
11761;SDS011;5938;47.098;15.474;2023-05-27T02:17:45;11.97;;;10.67;;
11761;SDS011;5938;47.098;15.474;2023-05-27T02:21:52;12.93;;;10.03;;
11761;SDS011;5938;47.098;15.474;2023-05-27T02:25:55;12.73;;;10.63;;
11761;SDS011;5938;47.098;15.474;2023-05-27T02:30:01;13.97;;;10.57;;
11761;SDS011;5938;47.098;15.474;2023-05-27T02:34:04;15.30;;;11.10;;
11761;SDS011;5938;47.098;15.474;2023-05-27T02:38:08;12.63;;;11.03;;
11761;SDS011;5938;47.098;15.474;2023-05-27T02:42:11;12.37;;;10.90;;
11761;SDS011;5938;47.098;15.474;2023-05-27T02:46:16;15.03;;;11.27;;
11761;SDS011;5938;47.098;15.474;2023-05-27T02:50:19;20.47;;;10.57;;
11761;SDS011;5938;47.098;15.474;2023-05-27T02:54:23;14.67;;;11.47;;
11761;SDS011;5938;47.098;15.474;2023-05-27T02:58:26;12.70;;;11.37;;
11761;SDS011;5938;47.098;15.474;2023-05-27T03:02:30;12.83;;;10.57;;
11761;SDS011;5938;47.098;15.474;2023-05-27T03:06:34;18.30;;;11.20;;
11761;SDS011;5938;47.098;15.474;2023-05-27T03:10:38;15.60;;;11.00;;
11761;SDS011;5938;47.098;15.474;2023-05-27T03:14:42;13.43;;;11.27;;
11761;SDS011;5938;47.098;15.474;2023-05-27T03:18:46;21.80;;;12.20;;
11761;SDS011;5938;47.098;15.474;2023-05-27T03:22:50;15.07;;;11.43;;
11761;SDS011;5938;47.098;15.474;2023-05-27T03:26:53;13.20;;;11.60;;
11761;SDS011;5938;47.098;15.474;2023-05-27T03:30:56;15.00;;;11.77;;
11761;SDS011;5938;47.098;15.474;2023-05-27T03:35:01;14.00;;;11.30;;
11761;SDS011;5938;47.098;15.474;2023-05-27T03:39:05;13.27;;;11.70;;
11761;SDS011;5938;47.098;15.474;2023-05-27T03:43:08;14.70;;;11.93;;
11761;SDS011;5938;47.098;15.474;2023-05-27T03:47:12;16.03;;;11.63;;
11761;SDS011;5938;47.098;15.474;2023-05-27T03:51:21;13.10;;;11.80;;
11761;SDS011;5938;47.098;15.474;2023-05-27T03:55:24;13.30;;;11.37;;
11761;SDS011;5938;47.098;15.474;2023-05-27T03:59:28;15.33;;;13.07;;
11761;SDS011;5938;47.098;15.474;2023-05-27T04:03:32;19.30;;;12.60;;
11761;SDS011;5938;47.098;15.474;2023-05-27T04:07:37;13.87;;;12.43;;
11761;SDS011;5938;47.098;15.474;2023-05-27T04:11:42;18.87;;;11.77;;
11761;SDS011;5938;47.098;15.474;2023-05-27T04:20:26;13.37;;;11.63;;
11761;SDS011;5938;47.098;15.474;2023-05-27T04:24:38;13.33;;;11.97;;
11761;SDS011;5938;47.098;15.474;2023-05-27T04:28:42;12.13;;;10.90;;
11761;SDS011;5938;47.098;15.474;2023-05-27T04:32:48;15.00;;;11.90;;
11761;SDS011;5938;47.098;15.474;2023-05-27T04:36:51;16.80;;;11.50;;
11761;SDS011;5938;47.098;15.474;2023-05-27T04:40:56;16.33;;;11.27;;
11761;SDS011;5938;47.098;15.474;2023-05-27T04:44:59;12.40;;;11.00;;
11761;SDS011;5938;47.098;15.474;2023-05-27T04:49:03;12.83;;;11.53;;
11761;SDS011;5938;47.098;15.474;2023-05-27T04:53:06;13.73;;;11.73;;
11761;SDS011;5938;47.098;15.474;2023-05-27T04:57:11;14.57;;;11.47;;
11761;SDS011;5938;47.098;15.474;2023-05-27T05:01:15;14.90;;;11.80;;
11761;SDS011;5938;47.098;15.474;2023-05-27T05:05:23;13.90;;;11.30;;
11761;SDS011;5938;47.098;15.474;2023-05-27T05:09:26;12.60;;;11.30;;
11761;SDS011;5938;47.098;15.474;2023-05-27T05:17:44;14.60;;;11.53;;
11761;SDS011;5938;47.098;15.474;2023-05-27T05:21:47;12.77;;;11.50;;
11761;SDS011;5938;47.098;15.474;2023-05-27T05:25:50;13.83;;;12.47;;
11761;SDS011;5938;47.098;15.474;2023-05-27T05:30:00;12.90;;;11.60;;
11761;SDS011;5938;47.098;15.474;2023-05-27T05:34:04;14.80;;;11.90;;
11761;SDS011;5938;47.098;15.474;2023-05-27T05:38:07;15.60;;;12.57;;
11761;SDS011;5938;47.098;15.474;2023-05-27T05:42:10;14.17;;;12.17;;
11761;SDS011;5938;47.098;15.474;2023-05-27T05:46:15;13.30;;;11.90;;
11761;SDS011;5938;47.098;15.474;2023-05-27T05:50:18;15.50;;;11.13;;
11761;SDS011;5938;47.098;15.474;2023-05-27T05:54:22;12.20;;;10.53;;
11761;SDS011;5938;47.098;15.474;2023-05-27T05:58:25;13.70;;;11.10;;
11761;SDS011;5938;47.098;15.474;2023-05-27T06:02:30;12.70;;;10.43;;
11761;SDS011;5938;47.098;15.474;2023-05-27T06:06:33;13.97;;;9.43;;
11761;SDS011;5938;47.098;15.474;2023-05-27T06:10:37;14.20;;;10.37;;
11761;SDS011;5938;47.098;15.474;2023-05-27T06:14:40;10.23;;;8.57;;
11761;SDS011;5938;47.098;15.474;2023-05-27T06:18:45;12.90;;;10.07;;
11761;SDS011;5938;47.098;15.474;2023-05-27T06:22:48;9.53;;;8.57;;
11761;SDS011;5938;47.098;15.474;2023-05-27T06:26:52;11.10;;;8.57;;
11761;SDS011;5938;47.098;15.474;2023-05-27T06:30:55;11.17;;;8.90;;
11761;SDS011;5938;47.098;15.474;2023-05-27T06:35:00;10.70;;;7.93;;
11761;SDS011;5938;47.098;15.474;2023-05-27T06:39:03;10.50;;;7.90;;
11761;SDS011;5938;47.098;15.474;2023-05-27T06:43:07;13.90;;;7.73;;
11761;SDS011;5938;47.098;15.474;2023-05-27T06:47:11;9.30;;;7.33;;
11761;SDS011;5938;47.098;15.474;2023-05-27T06:51:17;9.30;;;7.10;;
11761;SDS011;5938;47.098;15.474;2023-05-27T06:55:21;9.70;;;6.40;;
11761;SDS011;5938;47.098;15.474;2023-05-27T06:59:24;7.17;;;5.90;;
11761;SDS011;5938;47.098;15.474;2023-05-27T07:03:27;8.63;;;6.60;;
11761;SDS011;5938;47.098;15.474;2023-05-27T07:07:32;7.43;;;6.40;;
11761;SDS011;5938;47.098;15.474;2023-05-27T07:11:36;9.00;;;6.50;;
11761;SDS011;5938;47.098;15.474;2023-05-27T07:15:39;8.40;;;6.67;;
11761;SDS011;5938;47.098;15.474;2023-05-27T07:19:43;11.70;;;6.10;;
11761;SDS011;5938;47.098;15.474;2023-05-27T07:23:48;7.87;;;6.20;;
11761;SDS011;5938;47.098;15.474;2023-05-27T07:27:51;8.30;;;6.50;;
11761;SDS011;5938;47.098;15.474;2023-05-27T07:31:54;8.10;;;5.73;;
11761;SDS011;5938;47.098;15.474;2023-05-27T07:35:59;11.23;;;6.97;;
11761;SDS011;5938;47.098;15.474;2023-05-27T07:40:04;10.90;;;5.80;;
11761;SDS011;5938;47.098;15.474;2023-05-27T07:44:08;9.73;;;7.03;;
11761;SDS011;5938;47.098;15.474;2023-05-27T07:48:12;6.77;;;5.80;;
11761;SDS011;5938;47.098;15.474;2023-05-27T07:52:16;7.57;;;6.10;;
11761;SDS011;5938;47.098;15.474;2023-05-27T07:56:20;6.63;;;5.80;;
11761;SDS011;5938;47.098;15.474;2023-05-27T08:00:24;7.10;;;6.40;;
11761;SDS011;5938;47.098;15.474;2023-05-27T08:04:27;7.77;;;6.37;;
11761;SDS011;5938;47.098;15.474;2023-05-27T08:08:31;7.30;;;5.77;;
11761;SDS011;5938;47.098;15.474;2023-05-27T08:12:35;6.00;;;5.00;;
11761;SDS011;5938;47.098;15.474;2023-05-27T08:16:38;6.10;;;5.43;;
11761;SDS011;5938;47.098;15.474;2023-05-27T08:20:44;5.93;;;5.33;;
11761;SDS011;5938;47.098;15.474;2023-05-27T08:24:48;10.53;;;6.53;;
11761;SDS011;5938;47.098;15.474;2023-05-27T08:28:54;7.50;;;5.43;;
11761;SDS011;5938;47.098;15.474;2023-05-27T08:32:57;7.00;;;6.07;;
11761;SDS011;5938;47.098;15.474;2023-05-27T08:37:01;6.93;;;5.60;;
11761;SDS011;5938;47.098;15.474;2023-05-27T08:41:07;8.63;;;5.30;;
11761;SDS011;5938;47.098;15.474;2023-05-27T08:45:12;5.63;;;5.00;;
11761;SDS011;5938;47.098;15.474;2023-05-27T08:49:16;6.33;;;5.20;;
11761;SDS011;5938;47.098;15.474;2023-05-27T08:53:20;6.00;;;5.20;;
11761;SDS011;5938;47.098;15.474;2023-05-27T08:57:26;9.77;;;5.27;;
11761;SDS011;5938;47.098;15.474;2023-05-27T09:01:33;6.53;;;4.33;;
11761;SDS011;5938;47.098;15.474;2023-05-27T09:05:37;7.53;;;4.50;;
11761;SDS011;5938;47.098;15.474;2023-05-27T09:09:40;7.87;;;4.10;;
11761;SDS011;5938;47.098;15.474;2023-05-27T09:13:43;7.77;;;3.50;;
11761;SDS011;5938;47.098;15.474;2023-05-27T09:17:50;5.77;;;3.80;;
11761;SDS011;5938;47.098;15.474;2023-05-27T09:21:53;5.30;;;4.50;;
11761;SDS011;5938;47.098;15.474;2023-05-27T09:25:58;4.83;;;4.10;;
11761;SDS011;5938;47.098;15.474;2023-05-27T09:30:08;6.00;;;4.33;;
11761;SDS011;5938;47.098;15.474;2023-05-27T09:34:15;7.30;;;5.03;;
11761;SDS011;5938;47.098;15.474;2023-05-27T09:38:18;3.90;;;3.47;;
11761;SDS011;5938;47.098;15.474;2023-05-27T09:42:22;5.43;;;3.47;;
11761;SDS011;5938;47.098;15.474;2023-05-27T09:46:26;8.90;;;4.83;;
11761;SDS011;5938;47.098;15.474;2023-05-27T09:50:33;6.27;;;4.03;;
11761;SDS011;5938;47.098;15.474;2023-05-27T09:54:37;7.13;;;4.57;;
11761;SDS011;5938;47.098;15.474;2023-05-27T09:58:42;6.17;;;3.80;;
11761;SDS011;5938;47.098;15.474;2023-05-27T10:02:47;4.13;;;3.73;;
11761;SDS011;5938;47.098;15.474;2023-05-27T10:06:52;5.23;;;3.97;;
11761;SDS011;5938;47.098;15.474;2023-05-27T10:10:56;6.57;;;4.60;;
11761;SDS011;5938;47.098;15.474;2023-05-27T10:15:00;5.23;;;4.20;;
11761;SDS011;5938;47.098;15.474;2023-05-27T10:19:08;5.10;;;4.37;;
11761;SDS011;5938;47.098;15.474;2023-05-27T10:23:15;5.83;;;4.80;;
11761;SDS011;5938;47.098;15.474;2023-05-27T10:27:21;6.10;;;4.60;;
11761;SDS011;5938;47.098;15.474;2023-05-27T10:31:28;6.10;;;4.70;;
11761;SDS011;5938;47.098;15.474;2023-05-27T10:35:38;6.63;;;5.00;;
11761;SDS011;5938;47.098;15.474;2023-05-27T10:39:43;9.80;;;5.23;;
11761;SDS011;5938;47.098;15.474;2023-05-27T10:43:56;5.03;;;4.53;;
11761;SDS011;5938;47.098;15.474;2023-05-27T10:48:00;5.03;;;4.00;;
11761;SDS011;5938;47.098;15.474;2023-05-27T10:52:07;6.20;;;4.90;;
11761;SDS011;5938;47.098;15.474;2023-05-27T10:56:16;7.20;;;4.57;;
11761;SDS011;5938;47.098;15.474;2023-05-27T11:00:19;6.53;;;4.50;;
11761;SDS011;5938;47.098;15.474;2023-05-27T11:04:25;4.93;;;4.47;;
11761;SDS011;5938;47.098;15.474;2023-05-27T11:08:37;4.53;;;3.53;;
11761;SDS011;5938;47.098;15.474;2023-05-27T11:12:44;7.00;;;4.80;;
11761;SDS011;5938;47.098;15.474;2023-05-27T11:16:50;4.50;;;4.00;;
11761;SDS011;5938;47.098;15.474;2023-05-27T11:20:53;5.13;;;4.67;;
11761;SDS011;5938;47.098;15.474;2023-05-27T11:25:00;4.70;;;4.20;;
11761;SDS011;5938;47.098;15.474;2023-05-27T11:29:06;4.63;;;4.23;;
11761;SDS011;5938;47.098;15.474;2023-05-27T11:33:09;7.40;;;5.03;;
11761;SDS011;5938;47.098;15.474;2023-05-27T11:37:33;5.97;;;4.33;;
11761;SDS011;5938;47.098;15.474;2023-05-27T11:41:46;6.50;;;4.67;;
11761;SDS011;5938;47.098;15.474;2023-05-27T11:45:52;4.77;;;4.33;;
11761;SDS011;5938;47.098;15.474;2023-05-27T11:50:06;6.97;;;4.97;;
11761;SDS011;5938;47.098;15.474;2023-05-27T11:54:16;5.13;;;4.27;;
11761;SDS011;5938;47.098;15.474;2023-05-27T11:58:21;9.03;;;4.50;;
11761;SDS011;5938;47.098;15.474;2023-05-27T12:02:27;5.47;;;4.10;;
11761;SDS011;5938;47.098;15.474;2023-05-27T12:06:30;5.60;;;4.17;;
11761;SDS011;5938;47.098;15.474;2023-05-27T12:10:33;5.00;;;4.30;;
11761;SDS011;5938;47.098;15.474;2023-05-27T12:14:36;5.30;;;4.23;;
11761;SDS011;5938;47.098;15.474;2023-05-27T12:18:41;6.23;;;4.77;;
11761;SDS011;5938;47.098;15.474;2023-05-27T12:28:06;6.23;;;4.80;;
11761;SDS011;5938;47.098;15.474;2023-05-27T12:32:11;7.00;;;4.30;;
11761;SDS011;5938;47.098;15.474;2023-05-27T12:36:15;4.67;;;4.17;;
11761;SDS011;5938;47.098;15.474;2023-05-27T12:40:20;7.33;;;4.77;;
11761;SDS011;5938;47.098;15.474;2023-05-27T12:44:23;5.20;;;4.70;;
11761;SDS011;5938;47.098;15.474;2023-05-27T12:48:27;6.50;;;5.13;;
11761;SDS011;5938;47.098;15.474;2023-05-27T12:52:32;6.60;;;5.00;;
11761;SDS011;5938;47.098;15.474;2023-05-27T12:56:37;6.03;;;4.53;;
11761;SDS011;5938;47.098;15.474;2023-05-27T13:00:42;4.50;;;4.10;;
11761;SDS011;5938;47.098;15.474;2023-05-27T13:04:47;5.93;;;5.33;;
11761;SDS011;5938;47.098;15.474;2023-05-27T13:08:53;6.37;;;4.67;;
11761;SDS011;5938;47.098;15.474;2023-05-27T13:12:59;5.10;;;4.60;;
11761;SDS011;5938;47.098;15.474;2023-05-27T13:17:04;5.97;;;5.47;;
11761;SDS011;5938;47.098;15.474;2023-05-27T13:21:08;5.20;;;4.30;;
11761;SDS011;5938;47.098;15.474;2023-05-27T13:25:13;5.20;;;4.80;;
11761;SDS011;5938;47.098;15.474;2023-05-27T13:29:17;5.33;;;4.83;;
11761;SDS011;5938;47.098;15.474;2023-05-27T13:33:21;5.23;;;4.30;;
11761;SDS011;5938;47.098;15.474;2023-05-27T13:37:26;4.60;;;4.20;;
11761;SDS011;5938;47.098;15.474;2023-05-27T13:41:33;7.93;;;5.53;;
11761;SDS011;5938;47.098;15.474;2023-05-27T13:45:37;5.50;;;4.73;;
11761;SDS011;5938;47.098;15.474;2023-05-27T13:49:41;5.20;;;4.30;;
11761;SDS011;5938;47.098;15.474;2023-05-27T13:58:00;4.57;;;4.17;;
11761;SDS011;5938;47.098;15.474;2023-05-27T14:02:07;5.27;;;4.80;;
11761;SDS011;5938;47.098;15.474;2023-05-27T14:06:13;8.90;;;5.03;;
11761;SDS011;5938;47.098;15.474;2023-05-27T14:10:17;6.47;;;5.20;;
11761;SDS011;5938;47.098;15.474;2023-05-27T14:14:23;5.60;;;5.10;;
11761;SDS011;5938;47.098;15.474;2023-05-27T14:18:27;5.67;;;5.17;;
11761;SDS011;5938;47.098;15.474;2023-05-27T14:22:30;5.80;;;5.20;;
11761;SDS011;5938;47.098;15.474;2023-05-27T14:26:33;7.03;;;4.77;;
11761;SDS011;5938;47.098;15.474;2023-05-27T14:30:38;7.50;;;4.87;;
11761;SDS011;5938;47.098;15.474;2023-05-27T14:34:42;6.50;;;4.40;;
11761;SDS011;5938;47.098;15.474;2023-05-27T14:38:45;5.90;;;5.30;;
11761;SDS011;5938;47.098;15.474;2023-05-27T14:42:48;5.80;;;4.73;;
11761;SDS011;5938;47.098;15.474;2023-05-27T14:46:53;10.50;;;5.20;;
11761;SDS011;5938;47.098;15.474;2023-05-27T14:50:56;5.20;;;4.17;;
11761;SDS011;5938;47.098;15.474;2023-05-27T14:55:00;4.90;;;4.40;;
11761;SDS011;5938;47.098;15.474;2023-05-27T14:59:04;6.97;;;5.03;;
11761;SDS011;5938;47.098;15.474;2023-05-27T15:03:10;5.90;;;4.93;;
11761;SDS011;5938;47.098;15.474;2023-05-27T15:07:14;5.00;;;4.50;;
11761;SDS011;5938;47.098;15.474;2023-05-27T15:11:20;5.20;;;4.70;;
11761;SDS011;5938;47.098;15.474;2023-05-27T15:15:23;9.33;;;5.07;;
11761;SDS011;5938;47.098;15.474;2023-05-27T15:19:28;6.03;;;5.43;;
11761;SDS011;5938;47.098;15.474;2023-05-27T15:23:32;5.07;;;4.67;;
11761;SDS011;5938;47.098;15.474;2023-05-27T15:27:35;6.87;;;5.90;;
11761;SDS011;5938;47.098;15.474;2023-05-27T15:31:39;6.63;;;5.93;;
11761;SDS011;5938;47.098;15.474;2023-05-27T15:35:44;4.63;;;4.20;;
11761;SDS011;5938;47.098;15.474;2023-05-27T15:39:48;6.73;;;5.00;;
11761;SDS011;5938;47.098;15.474;2023-05-27T15:43:51;6.63;;;5.23;;
11761;SDS011;5938;47.098;15.474;2023-05-27T15:47:55;5.83;;;5.27;;
11761;SDS011;5938;47.098;15.474;2023-05-27T15:52:00;5.87;;;4.77;;
11761;SDS011;5938;47.098;15.474;2023-05-27T15:56:03;5.30;;;4.80;;
11761;SDS011;5938;47.098;15.474;2023-05-27T16:00:07;5.43;;;4.93;;
11761;SDS011;5938;47.098;15.474;2023-05-27T16:04:11;10.17;;;5.43;;
11761;SDS011;5938;47.098;15.474;2023-05-27T16:08:16;5.23;;;4.33;;
11761;SDS011;5938;47.098;15.474;2023-05-27T16:12:20;8.13;;;5.00;;
11761;SDS011;5938;47.098;15.474;2023-05-27T16:16:23;6.63;;;5.03;;
11761;SDS011;5938;47.098;15.474;2023-05-27T16:20:28;6.43;;;5.10;;
11761;SDS011;5938;47.098;15.474;2023-05-27T16:24:33;9.47;;;5.90;;
11761;SDS011;5938;47.098;15.474;2023-05-27T16:28:37;6.90;;;4.97;;
11761;SDS011;5938;47.098;15.474;2023-05-27T16:32:42;6.90;;;5.33;;
11761;SDS011;5938;47.098;15.474;2023-05-27T16:36:45;7.23;;;5.10;;
11761;SDS011;5938;47.098;15.474;2023-05-27T16:40:50;10.17;;;5.83;;
11761;SDS011;5938;47.098;15.474;2023-05-27T16:44:54;8.17;;;6.00;;
11761;SDS011;5938;47.098;15.474;2023-05-27T16:48:57;8.60;;;6.17;;
11761;SDS011;5938;47.098;15.474;2023-05-27T16:53:04;7.40;;;4.43;;
11761;SDS011;5938;47.098;15.474;2023-05-27T16:57:09;5.37;;;4.87;;
11761;SDS011;5938;47.098;15.474;2023-05-27T17:01:13;19.50;;;4.80;;
11761;SDS011;5938;47.098;15.474;2023-05-27T17:05:16;9.30;;;5.50;;
11761;SDS011;5938;47.098;15.474;2023-05-27T17:09:21;10.23;;;5.37;;
11761;SDS011;5938;47.098;15.474;2023-05-27T17:13:26;7.23;;;5.37;;
11761;SDS011;5938;47.098;15.474;2023-05-27T17:23:39;5.17;;;4.67;;
11761;SDS011;5938;47.098;15.474;2023-05-27T17:27:42;9.13;;;5.60;;
11761;SDS011;5938;47.098;15.474;2023-05-27T17:31:55;5.60;;;4.77;;
11761;SDS011;5938;47.098;15.474;2023-05-27T17:36:00;8.07;;;4.90;;
11761;SDS011;5938;47.098;15.474;2023-05-27T17:40:04;8.60;;;5.47;;
11761;SDS011;5938;47.098;15.474;2023-05-27T17:44:10;5.80;;;4.33;;
11761;SDS011;5938;47.098;15.474;2023-05-27T17:48:16;6.23;;;4.00;;
11761;SDS011;5938;47.098;15.474;2023-05-27T17:52:19;6.60;;;4.50;;
11761;SDS011;5938;47.098;15.474;2023-05-27T17:56:22;8.27;;;4.80;;
11761;SDS011;5938;47.098;15.474;2023-05-27T18:00:26;7.47;;;4.57;;
11761;SDS011;5938;47.098;15.474;2023-05-27T18:04:31;7.70;;;4.90;;
11761;SDS011;5938;47.098;15.474;2023-05-27T18:08:36;6.63;;;4.60;;
11761;SDS011;5938;47.098;15.474;2023-05-27T18:12:40;8.17;;;5.20;;
11761;SDS011;5938;47.098;15.474;2023-05-27T18:16:43;6.83;;;4.40;;
11761;SDS011;5938;47.098;15.474;2023-05-27T18:20:48;7.23;;;4.50;;
11761;SDS011;5938;47.098;15.474;2023-05-27T18:24:54;7.87;;;5.07;;
11761;SDS011;5938;47.098;15.474;2023-05-27T18:28:58;5.00;;;4.23;;
11761;SDS011;5938;47.098;15.474;2023-05-27T18:33:03;7.50;;;4.90;;
11761;SDS011;5938;47.098;15.474;2023-05-27T18:37:09;5.40;;;4.03;;
11761;SDS011;5938;47.098;15.474;2023-05-27T18:41:13;6.40;;;3.90;;
11761;SDS011;5938;47.098;15.474;2023-05-27T18:45:16;5.97;;;4.70;;
11761;SDS011;5938;47.098;15.474;2023-05-27T18:49:20;8.67;;;4.43;;
11761;SDS011;5938;47.098;15.474;2023-05-27T18:53:26;8.53;;;4.63;;
11761;SDS011;5938;47.098;15.474;2023-05-27T18:57:29;7.73;;;4.47;;
11761;SDS011;5938;47.098;15.474;2023-05-27T19:01:32;6.60;;;4.70;;
11761;SDS011;5938;47.098;15.474;2023-05-27T19:05:39;8.37;;;4.80;;
11761;SDS011;5938;47.098;15.474;2023-05-27T19:09:43;9.80;;;5.17;;
11761;SDS011;5938;47.098;15.474;2023-05-27T19:13:47;5.00;;;4.47;;
11761;SDS011;5938;47.098;15.474;2023-05-27T19:17:50;6.97;;;3.87;;
11761;SDS011;5938;47.098;15.474;2023-05-27T19:21:54;7.37;;;4.47;;
11761;SDS011;5938;47.098;15.474;2023-05-27T19:25:59;8.20;;;5.50;;
11761;SDS011;5938;47.098;15.474;2023-05-27T19:30:02;14.13;;;5.53;;
11761;SDS011;5938;47.098;15.474;2023-05-27T19:34:06;9.23;;;4.20;;
11761;SDS011;5938;47.098;15.474;2023-05-27T19:38:10;10.97;;;4.47;;
11761;SDS011;5938;47.098;15.474;2023-05-27T19:42:14;8.80;;;5.17;;
11761;SDS011;5938;47.098;15.474;2023-05-27T19:46:24;9.93;;;5.07;;
11761;SDS011;5938;47.098;15.474;2023-05-27T19:50:28;8.27;;;4.83;;
11761;SDS011;5938;47.098;15.474;2023-05-27T19:54:32;12.40;;;4.83;;
11761;SDS011;5938;47.098;15.474;2023-05-27T19:58:39;14.50;;;5.20;;
11761;SDS011;5938;47.098;15.474;2023-05-27T20:02:44;9.73;;;5.53;;
11761;SDS011;5938;47.098;15.474;2023-05-27T20:06:49;6.77;;;4.83;;
11761;SDS011;5938;47.098;15.474;2023-05-27T20:10:55;5.40;;;4.50;;
11761;SDS011;5938;47.098;15.474;2023-05-27T20:15:00;7.10;;;4.30;;
11761;SDS011;5938;47.098;15.474;2023-05-27T20:19:05;10.57;;;5.17;;
11761;SDS011;5938;47.098;15.474;2023-05-27T20:23:10;10.30;;;4.70;;
11761;SDS011;5938;47.098;15.474;2023-05-27T20:27:13;10.17;;;5.27;;
11761;SDS011;5938;47.098;15.474;2023-05-27T20:31:18;8.77;;;4.90;;
11761;SDS011;5938;47.098;15.474;2023-05-27T20:35:22;9.57;;;5.67;;
11761;SDS011;5938;47.098;15.474;2023-05-27T20:39:25;8.53;;;5.37;;
11761;SDS011;5938;47.098;15.474;2023-05-27T20:43:28;8.87;;;5.97;;
11761;SDS011;5938;47.098;15.474;2023-05-27T20:47:34;5.53;;;4.90;;
11761;SDS011;5938;47.098;15.474;2023-05-27T20:51:40;7.43;;;4.90;;
11761;SDS011;5938;47.098;15.474;2023-05-27T20:55:43;13.00;;;5.87;;
11761;SDS011;5938;47.098;15.474;2023-05-27T20:59:47;6.87;;;5.33;;
11761;SDS011;5938;47.098;15.474;2023-05-27T21:04:04;9.70;;;5.70;;
11761;SDS011;5938;47.098;15.474;2023-05-27T21:08:35;12.90;;;5.60;;
11761;SDS011;5938;47.098;15.474;2023-05-27T21:12:39;9.90;;;5.77;;
11761;SDS011;5938;47.098;15.474;2023-05-27T21:16:43;8.90;;;5.60;;
11761;SDS011;5938;47.098;15.474;2023-05-27T21:20:48;10.50;;;6.50;;
11761;SDS011;5938;47.098;15.474;2023-05-27T21:24:52;6.97;;;5.00;;
11761;SDS011;5938;47.098;15.474;2023-05-27T21:28:55;11.10;;;5.30;;
11761;SDS011;5938;47.098;15.474;2023-05-27T21:32:59;6.17;;;4.77;;
11761;SDS011;5938;47.098;15.474;2023-05-27T21:37:05;7.57;;;5.10;;
11761;SDS011;5938;47.098;15.474;2023-05-27T21:41:09;12.00;;;6.30;;
11761;SDS011;5938;47.098;15.474;2023-05-27T21:45:12;11.80;;;6.23;;
11761;SDS011;5938;47.098;15.474;2023-05-27T21:49:15;11.93;;;5.80;;
11761;SDS011;5938;47.098;15.474;2023-05-27T21:53:20;7.60;;;5.37;;
11761;SDS011;5938;47.098;15.474;2023-05-27T21:57:23;11.25;;;6.00;;
11761;SDS011;5938;47.098;15.474;2023-05-27T22:01:26;9.10;;;5.50;;
11761;SDS011;5938;47.098;15.474;2023-05-27T22:05:30;14.70;;;5.95;;
11761;SDS011;5938;47.098;15.474;2023-05-27T22:09:36;9.50;;;5.10;;
11761;SDS011;5938;47.098;15.474;2023-05-27T22:13:41;10.03;;;4.93;;
11761;SDS011;5938;47.098;15.474;2023-05-27T22:17:45;8.33;;;5.93;;
11761;SDS011;5938;47.098;15.474;2023-05-27T22:21:48;8.73;;;6.33;;
11761;SDS011;5938;47.098;15.474;2023-05-27T22:25:53;12.90;;;6.47;;
11761;SDS011;5938;47.098;15.474;2023-05-27T22:29:56;9.73;;;6.07;;
11761;SDS011;5938;47.098;15.474;2023-05-27T22:33:59;6.53;;;5.47;;
11761;SDS011;5938;47.098;15.474;2023-05-27T22:38:02;7.50;;;5.93;;
11761;SDS011;5938;47.098;15.474;2023-05-27T22:42:07;7.80;;;5.10;;
11761;SDS011;5938;47.098;15.474;2023-05-27T22:46:11;10.63;;;5.70;;
11761;SDS011;5938;47.098;15.474;2023-05-27T22:50:24;9.20;;;5.10;;
11761;SDS011;5938;47.098;15.474;2023-05-27T22:54:32;13.70;;;5.33;;
11761;SDS011;5938;47.098;15.474;2023-05-27T22:58:37;7.17;;;5.53;;
11761;SDS011;5938;47.098;15.474;2023-05-27T23:02:40;8.53;;;5.40;;
11761;SDS011;5938;47.098;15.474;2023-05-27T23:06:44;9.53;;;6.20;;
11761;SDS011;5938;47.098;15.474;2023-05-27T23:10:47;10.43;;;6.13;;
11761;SDS011;5938;47.098;15.474;2023-05-27T23:14:52;9.17;;;5.90;;
11761;SDS011;5938;47.098;15.474;2023-05-27T23:18:55;9.03;;;4.90;;
11761;SDS011;5938;47.098;15.474;2023-05-27T23:22:59;9.30;;;6.00;;
11761;SDS011;5938;47.098;15.474;2023-05-27T23:27:02;7.93;;;5.57;;
11761;SDS011;5938;47.098;15.474;2023-05-27T23:31:07;9.90;;;5.33;;
11761;SDS011;5938;47.098;15.474;2023-05-27T23:35:11;8.03;;;5.70;;
11761;SDS011;5938;47.098;15.474;2023-05-27T23:39:14;8.50;;;6.20;;
11761;SDS011;5938;47.098;15.474;2023-05-27T23:43:18;11.53;;;6.50;;
11761;SDS011;5938;47.098;15.474;2023-05-27T23:47:23;7.67;;;5.13;;
11761;SDS011;5938;47.098;15.474;2023-05-27T23:51:26;6.73;;;5.50;;
11761;SDS011;5938;47.098;15.474;2023-05-27T23:55:30;9.23;;;6.43;;
11761;SDS011;5938;47.098;15.474;2023-05-27T23:59:34;9.53;;;5.80;;
